Flight Track Log - Related Links

Times and Time Zones

All times are in EDT time to prevent confusion due to time zone crossing. See the SWA1969 flight status page for this flight to view local times or setup timezone preferences in your user account.

Time Position Orientation Groundspeed Altitude Reporting Facility
EDT Latitude Longitude Course Direction KTS MPH feet Rate Location/Type
Mon 09:04:32 AM 32.8333 -96.8333 125° Southeast 160 184 1,600  Level Dallas / Fort Worth TRACON
Mon 09:06:01 AM 32.7833 -96.7500 125° Southeast 236 272 5,400 2,208 Climbing Dallas / Fort Worth TRACON
Mon 09:06:56 AM 32.7333 -96.7000 140° Southeast 240 276 6,900 1,490 Climbing Dallas / Fort Worth TRACON
Mon 09:08:34 AM 32.7389 -96.6033 86° East 222 255 9,200 1,291 Climbing Fort Worth Center
Mon 09:09:34 AM 32.8100 -96.6075 357° North 177 204 10,300 600 Climbing Fort Worth Center
Mon 09:10:34 AM 32.8683 -96.6119 356° North 221 254 10,400 -750 Climbing Fort Worth Center
Mon 09:11:34 AM 32.9333 -96.6461 336° Northwest 234 269 8,800 -1,700 Descending Fort Worth Center
Mon 09:12:34 AM 32.9817 -96.7003 317° Northwest 254 292 7,000 -1,700 Descending Fort Worth Center
Mon 09:13:34 AM 33.0300 -96.7767 307° West 270 311 5,400 -1,100 Descending Fort Worth Center
Mon 09:14:34 AM 33.0033 -96.8436 245° Southwest 227 261 4,800 -700 Descending Fort Worth Center
Mon 09:15:34 AM 32.9722 -96.8908 232° Southwest 216 249 4,000 -711 Descending Fort Worth Center
Mon 09:15:50 AM 32.9667 -96.9000 234° Southwest 165 190 3,900 -1,263 Descending Dallas / Fort Worth TRACON
Mon 09:16:50 AM 32.9167 -96.9167 196° South 162 186 2,400 -1,158 Descending Dallas / Fort Worth TRACON
Mon 09:17:44 AM 32.8833 -96.9000 157° South 145 167 1,700 -842 Descending Dallas / Fort Worth TRACON
Mon 09:18:44 AM 32.8667 -96.8667 121° Southeast 146 168 800 1,165 Descending Dallas / Fort Worth TRACON
Mon 09:20:34 AM 32.8028 -96.8400 161° South 145 167 5,000 1,482 Climbing Fort Worth Center
Mon 09:21:34 AM 32.7714 -96.8156 147° Southeast 145 167 5,000  Level Fort Worth Center
Mon 09:22:34 AM 32.7400 -96.7911 147° Southeast 145 167 5,000  Level Fort Worth Center
Mon 09:23:34 AM 32.7336 -96.7861 147° Southeast 145 167 5,000  Level Fort Worth Center
Mon 09:25:34 AM 32.7336 -96.7861 320° Northwest 145 167 5,000  Level Fort Worth Center
Mon 09:27:34 AM 32.7336 -96.7861 320° Northwest 145 167 5,000  Level Fort Worth Center

Login

Don't have an account? Register now (free) for customized features, flight alerts, and more!